Flight Track Log - Related Links

Times and Time Zones

All times are in EST time to prevent confusion due to time zone crossing. See the N108RJ flight status page for this flight to view local times or setup timezone preferences in your user account.

Time Position Orientation Groundspeed Altitude Reporting Facility
EST Latitude Longitude Course Direction KTS MPH feet Rate Location/Type
Sun 04:04:45 PM 46.3294 -117.0311 253° West 166 191 6,500  Level Seattle Center
Sun 04:05:46 PM 46.3233 -117.0856 261° West 150 173 8,500 2,016 Climbing Seattle Center
Sun 04:06:47 PM 46.3136 -117.1453 257° West 149 171 10,600 1,884 Climbing Seattle Center
Sun 04:07:00 PM 46.2823 -117.5580 256° West  Level Estimated
Sun 04:07:47 PM 46.3050 -117.2033 258° West 149 171 12,300  Level Seattle Center
Sun 04:08:00 PM 46.2667 -117.6483 256° West  Level Estimated
Sun 04:08:48 PM 46.2958 -117.2636 258° West 153 176 14,000  Level Seattle Center
Sun 04:09:00 PM 46.2510 -117.7385 256° West  Level Estimated
Sun 04:09:49 PM 46.2878 -117.3250 259° West 156 180 15,500  Level Seattle Center
Sun 04:10:50 PM 46.2758 -117.3875 255° West 162 186 17,000 1,328 Climbing Seattle Center
Sun 04:11:51 PM 46.2667 -117.4528 259° West 166 191 18,200 1,190 Climbing Seattle Center
Sun 04:12:51 PM 46.2567 -117.5203 258° West 172 198 19,400 1,140 Climbing Seattle Center
Sun 04:13:52 PM 46.2472 -117.5853 258° West 167 192 20,500 1,033 Climbing Seattle Center
Sun 04:14:53 PM 46.2367 -117.6500 257° West 167 192 21,500 1,082 Climbing Seattle Center
Sun 04:15:54 PM 46.2239 -117.7283 257° West 168 193 22,700 984 Climbing Seattle Center
Sun 04:16:55 PM 46.2144 -117.7961 259° West 171 197 23,500 645 Climbing Seattle Center
Sun 04:17:55 PM 46.2028 -117.8628 256° West 172 198 24,000 248 Climbing Seattle Center
Sun 04:18:56 PM 46.1922 -117.9400 259° West 194 223 24,000  Level Seattle Center
Sun 04:19:57 PM 46.1789 -118.0217 257° West 207 238 24,000  Level Seattle Center
Sun 04:20:58 PM 46.1656 -118.1053 257° West 212 244 24,000  Level Seattle Center
Sun 04:21:59 PM 46.1525 -118.1889 257° West 214 246 24,000  Level Seattle Center
Sun 04:22:59 PM 46.1392 -118.2744 257° West 218 251 24,000  Level Seattle Center
Sun 04:24:00 PM 46.1247 -118.3586 256° West 217 250 24,000  Level Seattle Center
Sun 04:25:01 PM 46.1103 -118.4436 256° West 218 251 24,000  Level Seattle Center
Sun 04:26:02 PM 46.0978 -118.5267 258° West 220 253 24,000  Level Seattle Center
Sun 04:27:03 PM 46.0842 -118.6128 257° West 221 254 24,000  Level Seattle Center
Sun 04:28:03 PM 46.0700 -118.6989 257° West 222 255 24,000  Level Seattle Center
Sun 04:29:04 PM 46.0531 -118.8000 256° West 217 250 24,000  Level Seattle Center
Sun 04:30:05 PM 46.0383 -118.8861 256° West 220 253 24,000 49 Level Seattle Center
Sun 04:31:06 PM 46.0244 -118.9686 256° West 214 246 24,100  Climbing Seattle Center
Sun 04:32:06 PM 46.0103 -119.0547 257° West 220 253 24,000 -50 Descending Seattle Center
Sun 04:33:07 PM 45.9964 -119.1389 257° West 218 251 24,000  Level Seattle Center
Sun 04:34:08 PM 45.9825 -119.2219 256° West 215 247 24,000  Level Seattle Center
Sun 04:35:09 PM 45.9686 -119.3067 257° West 217 250 24,000  Level Seattle Center
Sun 04:36:10 PM 45.9542 -119.3906 256° West 217 250 24,000  Level Seattle Center
Sun 04:37:11 PM 45.9383 -119.4786 256° West 227 261 24,000  Level Seattle Center
Sun 04:38:11 PM 45.9142 -119.5686 249° West 243 280 24,000  Level Seattle Center
Sun 04:39:12 PM 45.8808 -119.6603 242° Southwest 258 297 24,000  Level Seattle Center
Sun 04:40:13 PM 45.8494 -119.7519 244° Southwest 258 297 24,000  Level Seattle Center
Sun 04:41:14 PM 45.8169 -119.8431 243° Southwest 258 297 24,000  Level Seattle Center
Sun 04:42:15 PM 45.7786 -119.9550 244° Southwest 261 300 24,000  Level Seattle Center
Sun 04:43:16 PM 45.7550 -120.0472 250° West 249 287 24,000  Level Seattle Center
Sun 04:44:16 PM 45.7450 -120.1383 261° West 234 269 24,000 50 Level Seattle Center
Sun 04:45:17 PM 45.7325 -120.2311 259° West 237 273 24,100  Climbing Seattle Center
Sun 04:46:18 PM 45.7206 -120.3233 260° West 238 274 24,000 -49 Descending Seattle Center
Sun 04:47:19 PM 45.7081 -120.4167 259° West 240 276 24,000  Level Seattle Center
Sun 04:48:20 PM 45.6964 -120.5061 259° West 232 267 24,000 49 Level Seattle Center
Sun 04:49:21 PM 45.6847 -120.5942 259° West 228 262 24,100  Climbing Seattle Center
Sun 04:50:21 PM 45.6736 -120.6847 260° West 232 267 24,000 -50 Descending Seattle Center
Sun 04:51:22 PM 45.6600 -120.7786 258° West 242 278 24,000  Level Seattle Center
Sun 04:52:23 PM 45.6478 -120.8719 259° West 242 278 24,000  Level Seattle Center
Sun 04:53:24 PM 45.6353 -120.9622 259° West 235 270 24,000 -738 Level Seattle Center
Sun 04:54:25 PM 45.6206 -121.0742 259° West 244 281 22,500 -1,388 Descending Seattle Center
Sun 04:55:25 PM 45.6067 -121.1736 259° West 255 293 21,200 -1,240 Descending Seattle Center
Sun 04:56:26 PM 45.5919 -121.2722 258° West 256 295 20,000 -1,277 Descending Seattle Center
Sun 04:56:59 PM 45.5856 -121.3331 261° West 257 296 19,200 -1,279 Descending Seattle Center
Sun 04:57:27 PM 45.5794 -121.3717 257° West 256 295 18,700 -1,161 Descending Seattle Center
Sun 04:57:30 PM 45.5797 -121.3758 275° West 255 293 18,600 -1,082 Descending Seattle Center
Sun 04:58:28 PM 45.5650 -121.4686 257° West 253 291 17,600 -1,000 Descending Seattle Center
Sun 04:58:30 PM 45.5658 -121.4747 281° West 251 289 17,600 -1,279 Level Seattle Center
Sun 04:59:29 PM 45.5503 -121.5689 257° West 249 287 16,300 -1,377 Descending Seattle Center
Sun 04:59:31 PM 45.5506 -121.5775 273° West 249 287 16,200 -295 Descending Seattle Center
Sun 05:00:30 PM 45.5369 -121.6653 258° West 249 287 16,000 -197 Descending Seattle Center
Sun 05:00:32 PM 45.5339 -121.6742 244° Southwest 250 288 16,000 -1,100 Level Seattle Center
Sun 05:01:30 PM 45.5306 -121.7703 267° West 248 285 14,900 -1,100 Descending Seattle Center
Sun 05:01:32 PM 45.5286 -121.7725 219° Southwest 249 287 14,900 -1,574 Level Seattle Center
Sun 05:02:31 PM 45.5250 -121.8664 267° West 244 281 13,300 -1,574 Descending Seattle Center
Sun 05:02:33 PM 45.5225 -121.8678 201° Southwest 242 278 13,300 -1,672 Level Seattle Center
Sun 05:03:32 PM 45.5203 -121.9586 268° West 235 270 11,600 -1,700 Descending Seattle Center
Sun 05:03:33 PM 45.5175 -121.9594 192° South 234 269 11,600 -1,574 Level Seattle Center
Sun 05:04:33 PM 45.5153 -122.0464 268° West 223 257 10,000 -1,574 Descending Seattle Center
Sun 05:04:34 PM 45.5142 -122.0475 215° Southwest 224 258 10,000 -1,672 Level Seattle Center
Sun 05:05:34 PM 45.5094 -122.1308 265° West 216 249 8,300 -1,672 Descending Seattle Center
Sun 05:05:35 PM 45.5081 -122.1333 232° Southwest 212 244 8,300 -1,180 Level Seattle Center
Sun 05:06:35 PM 45.5044 -122.2108 266° West 205 236 7,100 -1,273 Descending Seattle Center
Sun 05:06:41 PM 45.5031 -122.2250 262° West 203 234 6,900 -1,400 Descending Seattle Center
Sun 05:07:35 PM 45.4986 -122.3006 265° West 211 243 5,700 -1,309 Descending Seattle Center
Sun 05:07:36 PM 45.4969 -122.3014 199° South 208 239 5,700 -1,279 Level Seattle Center
Sun 05:08:36 PM 45.4925 -122.3847 266° West 214 246 4,400 -887 Descending Seattle Center
Sun 05:09:31 PM 45.4869 -122.4536 263° West 184 212 4,000 -393 Descending Seattle Center
Sun 05:09:37 PM 45.4878 -122.4589 283° West 189 217 4,000  Level Seattle Center
Sun 05:10:38 PM 45.4819 -122.5317 264° West 187 215 4,000  Level Seattle Center
Sun 05:11:38 PM 45.4778 -122.6061 265° West 187 215 4,000  Level Seattle Center
Sun 05:12:39 PM 45.4725 -122.6714 263° West 164 189 4,000  Level Seattle Center
Sun 05:12:45 PM 45.4711 -122.6758 246° West 156 180 4,000 -98 Level Seattle Center
Sun 05:13:40 PM 45.4625 -122.7300 257° West 160 184 3,900 -200 Descending Seattle Center
Sun 05:13:45 PM 45.4553 -122.7375 216° Southwest 163 188 3,800 -1,279 Descending Seattle Center
Sun 05:14:41 PM 45.4072 -122.7422 184° South 193 222 2,600 -1,180 Descending Seattle Center
Sun 05:14:46 PM 45.4031 -122.7464 215° Southwest 197 227 2,600  Level Seattle Center
Sun 05:15:41 PM 45.3675 -122.7475 181° South 138 159 2,600 -90 Level Seattle Center
Sun 05:15:53 PM 45.3628 -122.7506 204° Southwest 124 143 2,500 -1,180 Descending Seattle Center
Sun 05:16:42 PM 45.3319 -122.7547 185° South 132 152 1,400 -600 Descending Seattle Center
Sun 05:17:43 PM 45.2994 -122.7656 193° South 132 152 1,400  Level Seattle Center

Login

Don't have an account? Register now (free) for customized features, flight alerts, and more!